Time;durP1;ratioP1;P1;durP2;ratioP2;P2;SDS_P1;SDS_P2;PMS_P1;PMS_P2;Temp;Humidity;BMP_temperature;BMP_pressure;BME280_temperature;BME280_humidity;BME280_pressure;Samples;Min_cycle;Max_cycle;Signal;HPM_P1;HPM_P2
2021/08/04 00:01:53;;;;;;;2.03;1.10;;;23.70;61.10;;;;;;4987106;28;20418;-63
2021/08/04 00:04:18;;;;;;;2.65;1.13;;;23.70;61.20;;;;;;4985816;28;20732;-63
2021/08/04 00:06:44;;;;;;;1.60;1.00;;;23.80;61.30;;;;;;4992884;28;20507;-63
2021/08/04 00:09:10;;;;;;;2.42;0.88;;;23.70;61.20;;;;;;4987193;28;20398;-63
2021/08/04 00:11:36;;;;;;;2.00;1.00;;;23.70;61.10;;;;;;4985103;28;20386;-63
2021/08/04 00:14:02;;;;;;;1.43;0.70;;;23.70;61.10;;;;;;4990205;28;20400;-63
2021/08/04 00:16:29;;;;;;;2.17;0.80;;;23.70;61.10;;;;;;4985851;28;20401;-63
2021/08/04 00:18:55;;;;;;;2.78;0.77;;;23.70;61.10;;;;;;4991873;28;20448;-63
2021/08/04 00:21:20;;;;;;;1.73;0.90;;;23.70;61.70;;;;;;4990161;28;20536;-63
2021/08/04 00:23:46;;;;;;;2.00;0.90;;;23.70;61.10;;;;;;4990730;28;20410;-63
2021/08/04 00:26:12;;;;;;;3.37;1.10;;;23.70;61.10;;;;;;4986244;28;20386;-63
2021/08/04 00:28:38;;;;;;;1.90;1.00;;;23.70;61.10;;;;;;4990902;28;20425;-63
2021/08/04 00:31:04;;;;;;;1.98;0.90;;;23.70;61.10;;;;;;4986836;28;20395;-63
2021/08/04 00:33:29;;;;;;;1.80;0.90;;;23.60;61.00;;;;;;4984844;28;20400;-63
2021/08/04 00:35:55;;;;;;;1.60;0.90;;;23.60;61.00;;;;;;4986833;28;20422;-63
2021/08/04 00:38:20;;;;;;;2.25;1.02;;;23.60;61.00;;;;;;4984805;28;20402;-63
2021/08/04 00:40:47;;;;;;;2.20;0.93;;;23.60;61.00;;;;;;4984985;28;20391;-63
2021/08/04 00:43:13;;;;;;;2.10;0.97;;;23.60;61.00;;;;;;4987768;28;20589;-63
2021/08/04 00:45:39;;;;;;;1.60;0.90;;;23.60;61.00;;;;;;4989617;28;20406;-63
2021/08/04 00:48:06;;;;;;;1.40;0.80;;;23.60;61.00;;;;;;4989601;28;20511;-63
2021/08/04 00:50:33;;;;;;;1.60;0.90;;;23.60;61.10;;;;;;4988150;28;20394;-62
2021/08/04 00:52:59;;;;;;;1.40;0.87;;;23.60;61.00;;;;;;5026159;28;20400;-63
2021/08/04 00:55:27;;;;;;;1.30;0.70;;;23.60;61.00;;;;;;4989743;28;20468;-63
2021/08/04 00:57:53;;;;;;;1.40;0.80;;;23.60;61.00;;;;;;4985068;28;20468;-62
2021/08/04 01:00:19;;;;;;;1.80;0.88;;;23.60;61.00;;;;;;4995678;28;20389;-63
2021/08/04 01:02:51;;;;;;;1.50;0.90;;;23.60;61.00;;;;;;4986064;28;20398;-63
2021/08/04 01:05:53;;;;;;;1.58;0.80;;;23.60;61.00;;;;;;4984117;28;20426;-63
2021/08/04 01:08:36;;;;;;;1.42;0.80;;;23.60;61.00;;;;;;4991944;28;20882;-62
2021/08/04 01:11:06;;;;;;;1.10;0.63;;;23.60;61.00;;;;;;4984445;28;20926;-63
2021/08/04 01:13:47;;;;;;;1.38;0.80;;;23.50;61.00;;;;;;4983636;28;20910;-62
2021/08/04 01:16:28;;;;;;;1.60;0.80;;;23.60;61.00;;;;;;4984471;28;20874;-62
2021/08/04 01:19:06;;;;;;;1.97;0.80;;;23.50;61.00;;;;;;4987686;28;20505;-63
2021/08/04 01:21:47;;;;;;;1.25;0.73;;;23.60;61.00;;;;;;4986115;28;20941;-63
2021/08/04 01:24:35;;;;;;;1.65;0.70;;;23.60;61.00;;;;;;4985078;28;20481;-63
2021/08/04 01:27:02;;;;;;;1.85;0.80;;;23.50;60.90;;;;;;5020784;28;20902;-63
2021/08/04 01:29:28;;;;;;;1.83;0.80;;;23.50;60.90;;;;;;4988883;28;20403;-63
2021/08/04 01:31:59;;;;;;;1.67;0.90;;;23.50;61.00;;;;;;4988673;28;20390;-63
2021/08/04 01:34:26;;;;;;;1.20;0.90;;;23.50;60.90;;;;;;4984445;28;20391;-62
2021/08/04 01:36:54;;;;;;;1.15;0.70;;;23.50;61.00;;;;;;4983646;28;20382;-63
2021/08/04 01:39:21;;;;;;;1.13;0.80;;;23.50;61.00;;;;;;4986210;28;20398;-63
2021/08/04 01:41:49;;;;;;;2.20;0.90;;;23.50;61.00;;;;;;4983720;28;20398;-62
2021/08/04 01:44:15;;;;;;;1.17;0.80;;;23.50;60.90;;;;;;5015722;28;20397;-63
2021/08/04 01:46:41;;;;;;;1.17;0.70;;;23.50;61.00;;;;;;4984145;28;20418;-63
2021/08/04 01:49:09;;;;;;;1.00;0.60;;;23.50;61.00;;;;;;4983717;28;20406;-63
2021/08/04 01:51:36;;;;;;;1.35;0.80;;;23.50;60.90;;;;;;4984707;28;20391;-63
2021/08/04 01:54:02;;;;;;;1.25;0.70;;;23.50;61.50;;;;;;4984013;28;20465;-63
2021/08/04 01:56:28;;;;;;;1.25;0.80;;;23.50;61.00;;;;;;4985623;28;20382;-63
2021/08/04 01:58:54;;;;;;;1.35;0.80;;;23.50;61.60;;;;;;4983614;28;20421;-63
2021/08/04 02:01:19;;;;;;;1.20;0.80;;;23.40;60.90;;;;;;4987252;28;20382;-62
2021/08/04 02:03:45;;;;;;;1.30;0.82;;;23.50;61.00;;;;;;4983074;28;20752;-63
2021/08/04 02:06:49;;;;;;;1.13;0.70;;;23.50;61.00;;;;;;5019277;28;20395;-62
2021/08/04 02:09:27;;;;;;;1.10;0.70;;;23.40;61.00;;;;;;4992130;28;20492;-63
2021/08/04 02:12:10;;;;;;;1.33;0.70;;;23.50;61.10;;;;;;4992400;28;20901;-63
2021/08/04 02:14:52;;;;;;;1.15;0.73;;;23.40;61.00;;;;;;4996456;28;20485;-63
2021/08/04 02:17:40;;;;;;;1.08;0.70;;;23.40;61.00;;;;;;4988477;28;20402;-63
2021/08/04 02:20:25;;;;;;;1.73;0.70;;;23.40;61.00;;;;;;4989551;28;20485;-63
2021/08/04 02:23:03;;;;;;;1.10;0.73;;;23.40;61.00;;;;;;4990792;28;20398;-63
2021/08/04 02:25:43;;;;;;;1.13;0.80;;;23.40;60.90;;;;;;4994413;28;20385;-63
2021/08/04 02:28:13;;;;;;;2.00;0.70;;;23.40;61.00;;;;;;4988347;28;20422;-63
2021/08/04 02:30:40;;;;;;;1.10;0.70;;;23.40;61.00;;;;;;4987953;28;20390;-63
2021/08/04 02:33:07;;;;;;;1.00;0.70;;;23.40;61.00;;;;;;4988914;28;20491;-63
2021/08/04 02:35:33;;;;;;;1.10;0.70;;;23.40;60.90;;;;;;4988989;28;20378;-63
2021/08/04 02:37:59;;;;;;;1.20;0.73;;;23.40;61.00;;;;;;4989477;28;20405;-63
2021/08/04 02:40:26;;;;;;;1.73;0.80;;;23.40;61.00;;;;;;4988499;28;20398;-63
2021/08/04 02:42:54;;;;;;;1.57;0.70;;;23.40;61.00;;;;;;4987042;28;20434;-63
2021/08/04 02:45:21;;;;;;;1.10;0.60;;;23.40;61.00;;;;;;4991611;28;21015;-63
2021/08/04 02:47:47;;;;;;;1.20;0.60;;;23.40;61.00;;;;;;4989978;28;20430;-63
2021/08/04 02:50:14;;;;;;;1.10;0.70;;;23.40;61.00;;;;;;4987047;28;20383;-62
2021/08/04 02:52:41;;;;;;;1.20;0.60;;;23.40;61.00;;;;;;4996278;28;20384;-63
2021/08/04 02:55:08;;;;;;;1.20;0.70;;;23.40;61.00;;;;;;4991824;28;20430;-63
2021/08/04 02:57:34;;;;;;;1.30;0.70;;;23.40;61.00;;;;;;5024851;28;20395;-63
2021/08/04 03:00:00;;;;;;;1.40;0.70;;;23.30;60.90;;;;;;4994890;28;20484;-63
2021/08/04 03:02:25;;;;;;;1.35;0.60;;;23.40;61.00;;;;;;4986720;28;20449;-63
2021/08/04 03:04:52;;;;;;;1.10;0.60;;;23.40;60.90;;;;;;4987433;28;20394;-63
2021/08/04 03:07:17;;;;;;;1.10;0.60;;;23.30;60.90;;;;;;4986323;28;20504;-62
2021/08/04 03:09:43;;;;;;;1.07;0.60;;;23.30;60.90;;;;;;4986271;28;20883;-63
2021/08/04 03:12:09;;;;;;;1.75;0.80;;;23.30;61.10;;;;;;4986185;28;20395;-61
2021/08/04 03:14:34;;;;;;;1.40;0.70;;;23.40;62.30;;;;;;4986709;28;20425;-63
2021/08/04 03:17:00;;;;;;;1.50;0.80;;;23.40;62.20;;;;;;4989074;28;20398;-63
2021/08/04 03:19:25;;;;;;;1.40;0.90;;;23.40;62.50;;;;;;4986373;28;20447;-62
2021/08/04 03:21:51;;;;;;;1.20;0.80;;;23.40;62.10;;;;;;4985979;28;20398;-63
2021/08/04 03:24:17;;;;;;;3.30;0.77;;;23.40;63.20;;;;;;4990927;28;20943;-63
2021/08/04 03:26:43;;;;;;;1.30;0.80;;;23.40;63.00;;;;;;4994559;28;20411;-63
2021/08/04 03:29:08;;;;;;;2.03;0.80;;;23.50;63.50;;;;;;4991328;28;20930;-63
2021/08/04 03:31:34;;;;;;;3.20;1.10;;;23.50;63.60;;;;;;4984116;28;20863;-63
2021/08/04 03:34:00;;;;;;;1.95;0.77;;;23.60;63.80;;;;;;4970119;28;20390;-63
2021/08/04 03:36:25;;;;;;;2.53;0.90;;;23.60;63.90;;;;;;4993825;28;20428;-63
2021/08/04 03:38:51;;;;;;;4.35;0.90;;;23.60;64.10;;;;;;4986567;28;20978;-62
2021/08/04 03:41:17;;;;;;;2.73;0.87;;;23.60;64.20;;;;;;4990822;28;20398;-63
2021/08/04 03:43:43;;;;;;;2.95;0.80;;;23.60;63.20;;;;;;4986914;28;20526;-62
2021/08/04 03:46:09;;;;;;;2.90;0.80;;;23.60;63.60;;;;;;4985051;28;20383;-63
2021/08/04 03:48:34;;;;;;;1.52;0.80;;;23.60;63.40;;;;;;4988483;28;20418;-63
2021/08/04 03:51:03;;;;;;;2.30;0.80;;;23.60;63.20;;;;;;4985622;28;20392;-62
2021/08/04 03:53:28;;;;;;;2.15;0.90;;;23.70;63.10;;;;;;4990547;28;20450;-63
2021/08/04 03:55:54;;;;;;;2.20;0.90;;;23.70;62.90;;;;;;4988202;28;20433;-62
2021/08/04 03:58:20;;;;;;;2.20;0.70;;;23.60;62.90;;;;;;4988819;28;20399;-62
2021/08/04 04:00:46;;;;;;;1.93;0.70;;;23.70;62.80;;;;;;4993630;28;20396;-63
2021/08/04 04:03:12;;;;;;;1.80;0.80;;;23.70;62.70;;;;;;4987904;28;20394;-62
2021/08/04 04:05:38;;;;;;;1.35;0.75;;;23.60;62.50;;;;;;4988153;28;20433;-63
2021/08/04 04:08:03;;;;;;;1.30;0.70;;;23.60;62.30;;;;;;4988324;28;20426;-63
2021/08/04 04:10:29;;;;;;;2.45;1.00;;;23.50;62.20;;;;;;4994712;28;20471;-63
2021/08/04 04:12:55;;;;;;;1.70;0.90;;;23.50;61.80;;;;;;4985901;28;20410;-63
2021/08/04 04:15:20;;;;;;;2.70;0.90;;;23.50;61.90;;;;;;4984104;28;20398;-63
2021/08/04 04:17:46;;;;;;;3.20;0.90;;;23.50;61.80;;;;;;4984628;28;20438;-63
2021/08/04 04:20:13;;;;;;;4.17;0.90;;;23.40;61.70;;;;;;4985421;28;20394;-63
2021/08/04 04:22:43;;;;;;;3.20;0.90;;;23.40;61.90;;;;;;4987565;28;20747;-63
2021/08/04 04:25:11;;;;;;;3.15;1.10;;;23.40;61.90;;;;;;4987604;28;20399;-63
2021/08/04 04:27:37;;;;;;;3.35;1.20;;;23.40;61.60;;;;;;4984331;28;20460;-63
2021/08/04 04:30:02;;;;;;;3.03;1.10;;;23.40;61.60;;;;;;4983340;28;20399;-63
2021/08/04 04:32:28;;;;;;;2.70;0.80;;;23.40;61.60;;;;;;4989013;28;20399;-63
2021/08/04 04:34:54;;;;;;;5.03;0.80;;;23.40;61.50;;;;;;4989801;28;20478;-62
2021/08/04 04:37:19;;;;;;;2.27;0.90;;;23.40;61.50;;;;;;4989108;28;20477;-62
2021/08/04 04:39:45;;;;;;;3.43;0.90;;;23.40;61.60;;;;;;4985435;28;20403;-62
2021/08/04 04:42:11;;;;;;;2.10;0.95;;;23.30;61.50;;;;;;4987913;28;20807;-62
2021/08/04 04:44:36;;;;;;;2.13;0.90;;;23.30;61.50;;;;;;4987014;28;20848;-63
2021/08/04 04:47:02;;;;;;;2.85;0.90;;;23.30;61.50;;;;;;4984552;28;20432;-62
2021/08/04 04:49:28;;;;;;;4.53;0.90;;;23.30;61.40;;;;;;4985783;28;20437;-63
2021/08/04 04:51:53;;;;;;;2.10;0.90;;;23.30;61.50;;;;;;4986292;28;20814;-62
2021/08/04 04:54:19;;;;;;;1.90;0.90;;;23.30;61.50;;;;;;4987405;28;20422;-63
2021/08/04 04:56:45;;;;;;;1.20;0.70;;;23.30;61.50;;;;;;4985989;28;20472;-63
2021/08/04 04:59:10;;;;;;;2.60;0.80;;;23.30;61.50;;;;;;4984477;28;21264;-63
2021/08/04 05:01:36;;;;;;;2.20;0.87;;;23.30;61.50;;;;;;4986199;28;20890;-62
2021/08/04 05:04:01;;;;;;;1.80;0.80;;;23.30;61.50;;;;;;4988274;28;20859;-63
2021/08/04 05:06:27;;;;;;;1.57;0.70;;;23.30;61.50;;;;;;4984431;28;20406;-62
2021/08/04 05:08:53;;;;;;;1.73;0.60;;;23.30;61.50;;;;;;4987504;28;20895;-62
2021/08/04 05:11:18;;;;;;;1.67;0.80;;;23.30;61.50;;;;;;4984634;28;20528;-63
2021/08/04 05:13:44;;;;;;;1.93;0.70;;;23.30;61.50;;;;;;4989030;28;21169;-62
2021/08/04 05:16:10;;;;;;;2.17;0.70;;;23.30;61.50;;;;;;4984384;28;21361;-63
2021/08/04 05:18:35;;;;;;;1.50;0.60;;;23.30;61.40;;;;;;4984719;28;20744;-62
2021/08/04 05:21:01;;;;;;;1.30;0.70;;;23.30;61.40;;;;;;4992020;28;20504;-63
2021/08/04 05:23:27;;;;;;;3.80;0.90;;;23.30;61.50;;;;;;4985964;28;20857;-62
2021/08/04 05:25:52;;;;;;;1.67;0.80;;;23.20;61.40;;;;;;4982759;28;20425;-62
2021/08/04 05:28:18;;;;;;;1.20;0.73;;;23.30;61.50;;;;;;4984211;28;20467;-62
2021/08/04 05:30:44;;;;;;;1.20;0.70;;;23.30;61.40;;;;;;4984250;28;20397;-63
2021/08/04 05:33:09;;;;;;;1.40;0.80;;;23.30;61.30;;;;;;4984241;28;20402;-62
2021/08/04 05:35:35;;;;;;;1.38;0.80;;;23.20;61.30;;;;;;4988078;28;20497;-63
2021/08/04 05:38:00;;;;;;;1.77;0.70;;;23.30;61.40;;;;;;4983542;28;20405;-62
2021/08/04 05:40:27;;;;;;;1.90;0.73;;;23.20;61.30;;;;;;4984016;28;20758;-62
2021/08/04 05:42:52;;;;;;;1.52;0.73;;;23.20;61.30;;;;;;4989487;28;20407;-62
2021/08/04 05:45:18;;;;;;;1.23;0.80;;;23.20;61.30;;;;;;4988558;28;20399;-62
2021/08/04 05:47:43;;;;;;;1.47;0.70;;;23.20;61.30;;;;;;4983517;28;20427;-64
2021/08/04 05:50:10;;;;;;;1.85;0.70;;;23.20;61.30;;;;;;4990046;28;20382;-62
2021/08/04 05:52:35;;;;;;;1.50;0.80;;;23.20;61.30;;;;;;4985921;28;20398;-64
2021/08/04 05:55:01;;;;;;;1.20;0.70;;;23.20;61.30;;;;;;4985846;28;20394;-63
2021/08/04 05:57:27;;;;;;;1.35;0.70;;;23.20;61.30;;;;;;4989880;28;20446;-63
2021/08/04 05:59:52;;;;;;;1.57;0.80;;;23.20;61.30;;;;;;4983699;28;20394;-62
2021/08/04 06:02:18;;;;;;;1.42;0.80;;;23.20;61.30;;;;;;4989806;28;20741;-62
2021/08/04 06:04:44;;;;;;;2.13;0.80;;;23.20;61.30;;;;;;4984466;28;20947;-63
2021/08/04 06:07:09;;;;;;;1.90;0.75;;;23.20;61.30;;;;;;4987964;28;20755;-62
2021/08/04 06:09:35;;;;;;;1.20;0.60;;;23.20;61.30;;;;;;4984797;28;20460;-63
2021/08/04 06:12:01;;;;;;;1.40;0.80;;;23.20;61.30;;;;;;4983379;28;20476;-62
2021/08/04 06:14:26;;;;;;;0.77;0.55;;;23.20;61.30;;;;;;4989497;28;20410;-63
2021/08/04 06:16:52;;;;;;;1.27;0.80;;;23.20;61.30;;;;;;4983708;28;20936;-62
2021/08/04 06:19:18;;;;;;;1.35;0.70;;;23.20;61.30;;;;;;4987136;28;20424;-63
2021/08/04 06:21:43;;;;;;;1.20;0.70;;;23.20;61.30;;;;;;4984017;28;20397;-62
2021/08/04 06:24:09;;;;;;;1.58;0.70;;;23.20;61.30;;;;;;4986421;28;20806;-62
2021/08/04 06:26:34;;;;;;;1.60;0.80;;;23.20;61.30;;;;;;4985462;28;20441;-62
2021/08/04 06:29:00;;;;;;;1.20;0.70;;;23.20;61.30;;;;;;4983266;28;20461;-62
2021/08/04 06:31:26;;;;;;;1.20;0.80;;;23.20;61.30;;;;;;4983394;28;20453;-62
2021/08/04 06:33:51;;;;;;;1.20;0.70;;;23.20;61.30;;;;;;4986770;28;20413;-62
2021/08/04 06:36:17;;;;;;;1.00;0.63;;;23.20;61.30;;;;;;4988745;28;20398;-62
2021/08/04 06:38:43;;;;;;;1.20;0.73;;;23.20;61.30;;;;;;4988564;28;20486;-63
2021/08/04 06:41:08;;;;;;;1.30;0.75;;;23.20;61.30;;;;;;4988531;28;20496;-62
2021/08/04 06:43:34;;;;;;;1.20;0.70;;;23.20;61.30;;;;;;4988578;28;20395;-63
2021/08/04 06:46:00;;;;;;;1.13;0.80;;;23.10;61.20;;;;;;4994948;28;20400;-63
2021/08/04 06:48:25;;;;;;;1.40;0.50;;;23.20;61.30;;;;;;4984767;28;20467;-62
2021/08/04 06:50:51;;;;;;;1.03;0.63;;;23.20;61.30;;;;;;4988383;28;20463;-63
2021/08/04 06:53:17;;;;;;;1.05;0.65;;;23.20;61.30;;;;;;4990260;28;20412;-63
2021/08/04 06:55:42;;;;;;;1.43;0.80;;;23.10;61.20;;;;;;4992748;28;20404;-63
2021/08/04 06:58:08;;;;;;;1.35;0.70;;;23.10;61.30;;;;;;4995008;28;20744;-62
2021/08/04 07:00:34;;;;;;;1.27;0.70;;;23.10;61.20;;;;;;4994942;28;20394;-63
2021/08/04 07:02:59;;;;;;;1.30;0.75;;;23.10;61.20;;;;;;4996047;28;20409;-62
2021/08/04 07:05:25;;;;;;;1.47;0.80;;;23.10;61.20;;;;;;4991743;28;20713;-62
2021/08/04 07:07:50;;;;;;;1.25;0.77;;;23.10;61.30;;;;;;4990717;28;20444;-62
2021/08/04 07:10:16;;;;;;;1.35;0.70;;;23.10;61.30;;;;;;4994472;28;20530;-63
2021/08/04 07:12:42;;;;;;;0.80;0.60;;;23.10;61.20;;;;;;4987221;28;20446;-62
2021/08/04 07:15:08;;;;;;;1.05;0.70;;;23.10;61.30;;;;;;4992240;28;20911;-63
2021/08/04 07:17:48;;;;;;;1.20;0.77;;;23.10;61.20;;;;;;4993076;28;20801;-62
2021/08/04 07:20:16;;;;;;;1.05;0.70;;;23.10;61.20;;;;;;4988803;28;20398;-62
2021/08/04 07:22:42;;;;;;;0.95;0.68;;;23.10;61.20;;;;;;4991316;28;20394;-63
2021/08/04 07:25:10;;;;;;;1.10;0.80;;;23.10;61.20;;;;;;4991700;28;20454;-62
2021/08/04 07:27:36;;;;;;;1.00;0.68;;;23.10;61.20;;;;;;4991831;28;20802;-62
2021/08/04 07:30:03;;;;;;;1.13;0.80;;;23.10;61.20;;;;;;4986823;28;20393;-63
2021/08/04 07:32:29;;;;;;;1.02;0.75;;;23.10;61.20;;;;;;4989518;28;20398;-63
2021/08/04 07:34:55;;;;;;;1.67;0.90;;;23.10;61.20;;;;;;4985732;28;20387;-62
2021/08/04 07:37:21;;;;;;;1.10;0.70;;;23.10;61.20;;;;;;4986669;28;20418;-63
2021/08/04 07:39:47;;;;;;;1.10;0.70;;;23.10;61.20;;;;;;4985539;28;20394;-63
2021/08/04 07:42:13;;;;;;;0.98;0.68;;;23.10;61.20;;;;;;4991184;28;20956;-63
2021/08/04 07:44:38;;;;;;;1.20;0.80;;;23.10;61.50;;;;;;4992242;28;20799;-62
2021/08/04 07:47:04;;;;;;;1.48;0.90;;;23.10;61.20;;;;;;4991096;28;20489;-63
2021/08/04 07:49:29;;;;;;;1.10;0.70;;;23.10;61.20;;;;;;4990535;28;20466;-62
2021/08/04 07:51:55;;;;;;;1.10;0.80;;;23.10;61.20;;;;;;4989350;28;20489;-63
2021/08/04 07:54:21;;;;;;;1.30;0.80;;;23.10;61.20;;;;;;4988815;28;20505;-62
2021/08/04 07:56:46;;;;;;;1.00;0.70;;;23.10;61.20;;;;;;4990864;28;20425;-62
2021/08/04 07:59:12;;;;;;;1.25;0.90;;;23.10;61.20;;;;;;4989125;28;20482;-62
2021/08/04 08:01:38;;;;;;;1.40;0.80;;;23.10;61.20;;;;;;4988747;28;20519;-63
2021/08/04 08:04:03;;;;;;;1.27;0.75;;;23.10;61.30;;;;;;4985322;28;20820;-63
2021/08/04 08:06:29;;;;;;;1.00;0.63;;;23.10;61.80;;;;;;4984380;28;21550;-62
2021/08/04 08:08:55;;;;;;;1.10;0.70;;;23.10;61.20;;;;;;4984290;28;20428;-62
2021/08/04 08:11:20;;;;;;;1.00;0.80;;;23.10;61.20;;;;;;4988417;28;20448;-64
2021/08/04 08:13:46;;;;;;;1.00;0.70;;;23.10;61.50;;;;;;4984931;28;20410;-63
2021/08/04 08:16:12;;;;;;;1.10;0.90;;;23.10;61.30;;;;;;4988072;28;20410;-62
2021/08/04 08:18:37;;;;;;;1.25;0.90;;;23.10;61.20;;;;;;4985268;28;20473;-62
2021/08/04 08:21:03;;;;;;;1.20;0.80;;;23.10;61.20;;;;;;4984288;28;20433;-63
2021/08/04 08:23:29;;;;;;;1.20;0.70;;;23.10;61.20;;;;;;5000636;28;20407;-62
2021/08/04 08:25:54;;;;;;;1.65;1.00;;;23.10;61.20;;;;;;4989346;28;20395;-62
2021/08/04 08:28:20;;;;;;;2.23;1.10;;;23.10;61.20;;;;;;4989523;28;20438;-62
2021/08/04 08:30:48;;;;;;;2.25;1.13;;;23.10;60.90;;;;;;4984923;28;20430;-64
2021/08/04 08:33:13;;;;;;;2.10;1.07;;;23.00;60.60;;;;;;4984405;28;20813;-63
2021/08/04 08:35:39;;;;;;;1.42;1.02;;;23.10;60.60;;;;;;4984951;28;20394;-62
2021/08/04 08:38:05;;;;;;;1.35;0.82;;;23.00;60.60;;;;;;4983693;28;20395;-63
2021/08/04 08:40:32;;;;;;;1.50;1.00;;;23.00;60.70;;;;;;4985415;28;20760;-64
2021/08/04 08:43:00;;;;;;;1.75;0.95;;;23.00;60.70;;;;;;4986482;28;20921;-64
2021/08/04 08:45:26;;;;;;;1.20;0.90;;;23.10;60.80;;;;;;4985529;28;20736;-63
2021/08/04 08:47:52;;;;;;;1.60;1.00;;;23.00;60.70;;;;;;4983546;28;20429;-64
2021/08/04 08:50:25;;;;;;;1.60;1.00;;;23.00;60.90;;;;;;4985815;28;20379;-65
2021/08/04 08:52:54;;;;;;;2.40;1.00;;;23.00;60.80;;;;;;4986003;28;20764;-63
2021/08/04 08:55:20;;;;;;;1.55;0.77;;;23.00;60.90;;;;;;4988590;28;20390;-63
2021/08/04 08:57:46;;;;;;;1.52;0.90;;;23.00;61.00;;;;;;4986691;28;20839;-62
2021/08/04 09:00:12;;;;;;;2.33;1.00;;;23.00;61.00;;;;;;4983126;28;20740;-64
2021/08/04 09:02:41;;;;;;;1.67;0.90;;;23.00;61.10;;;;;;4984322;28;20405;-64
2021/08/04 09:05:16;;;;;;;1.25;0.90;;;23.00;61.00;;;;;;4986465;28;20389;-64
2021/08/04 09:07:44;;;;;;;1.60;1.00;;;23.00;61.00;;;;;;4984797;28;21035;-64
2021/08/04 09:10:31;;;;;;;2.13;1.00;;;23.00;61.10;;;;;;4984029;28;20489;-64
2021/08/04 09:13:00;;;;;;;1.48;0.90;;;23.00;61.10;;;;;;4984121;28;20405;-64
2021/08/04 09:15:30;;;;;;;1.70;1.10;;;23.00;61.20;;;;;;4984169;28;20397;-64
2021/08/04 09:18:08;;;;;;;1.47;0.90;;;23.00;61.10;;;;;;4997698;28;20422;-64
2021/08/04 09:20:54;;;;;;;1.27;0.87;;;23.00;61.20;;;;;;4984198;28;21177;-64
2021/08/04 09:23:27;;;;;;;1.43;0.90;;;23.00;61.20;;;;;;4985499;28;20483;-65
2021/08/04 09:26:18;;;;;;;1.35;0.80;;;23.00;61.20;;;;;;4983467;28;20393;-63
2021/08/04 09:29:01;;;;;;;1.20;0.90;;;23.00;61.20;;;;;;4985757;28;20421;-63
2021/08/04 09:31:49;;;;;;;1.52;0.95;;;23.00;61.20;;;;;;4983336;28;20409;-64
2021/08/04 09:34:34;;;;;;;1.58;0.80;;;23.00;61.20;;;;;;4985688;28;20482;-65
2021/08/04 09:37:14;;;;;;;1.40;1.00;;;23.00;61.10;;;;;;4983777;28;20901;-64
2021/08/04 09:39:45;;;;;;;1.70;0.93;;;23.00;61.20;;;;;;4984290;28;20413;-64
2021/08/04 09:42:14;;;;;;;1.23;0.80;;;23.00;61.30;;;;;;4983666;28;20386;-63
2021/08/04 09:44:58;;;;;;;1.33;1.00;;;23.00;61.30;;;;;;4983353;28;20403;-64
2021/08/04 09:47:24;;;;;;;1.42;0.95;;;23.00;61.20;;;;;;4984067;28;20417;-63
2021/08/04 09:49:55;;;;;;;1.30;0.95;;;23.00;61.40;;;;;;4987881;28;20422;-63
2021/08/04 09:52:21;;;;;;;1.30;1.00;;;23.00;61.30;;;;;;4987340;28;20391;-63
2021/08/04 09:54:46;;;;;;;1.40;0.90;;;23.00;61.40;;;;;;4983237;28;20394;-63
2021/08/04 09:57:12;;;;;;;1.58;0.90;;;23.00;61.40;;;;;;4984324;28;20405;-64
2021/08/04 09:59:40;;;;;;;1.40;1.05;;;23.00;61.40;;;;;;4985971;28;20974;-63
2021/08/04 10:02:25;;;;;;;1.83;1.00;;;23.00;61.40;;;;;;4983584;28;20529;-63
2021/08/04 10:05:15;;;;;;;2.00;1.10;;;23.00;61.40;;;;;;4984237;28;20390;-62
2021/08/04 10:08:00;;;;;;;2.03;1.10;;;23.00;61.40;;;;;;4984702;28;20432;-62
2021/08/04 10:10:26;;;;;;;1.47;0.90;;;23.00;61.40;;;;;;4983616;28;20758;-63
2021/08/04 10:12:54;;;;;;;1.60;1.10;;;23.00;61.40;;;;;;4986260;28;20461;-63
2021/08/04 10:15:20;;;;;;;1.80;1.20;;;23.00;61.40;;;;;;4984363;28;20389;-62
2021/08/04 10:17:46;;;;;;;1.63;1.00;;;23.00;61.40;;;;;;4982047;28;20411;-62
2021/08/04 10:20:14;;;;;;;1.92;1.00;;;23.00;61.50;;;;;;4984115;28;20406;-63
2021/08/04 10:22:41;;;;;;;1.10;0.82;;;23.00;61.40;;;;;;4984396;28;20402;-62
2021/08/04 10:25:07;;;;;;;1.60;1.20;;;23.00;61.50;;;;;;4984011;28;20390;-62
2021/08/04 10:27:34;;;;;;;1.38;1.00;;;23.00;61.50;;;;;;4984761;28;20407;-62
2021/08/04 10:30:01;;;;;;;1.48;0.90;;;23.00;61.50;;;;;;4987959;28;20402;-63
2021/08/04 10:32:28;;;;;;;1.90;0.95;;;23.00;61.50;;;;;;4989700;28;20984;-63
2021/08/04 10:34:56;;;;;;;1.58;1.10;;;22.90;61.50;;;;;;4989420;28;20414;-62
2021/08/04 10:37:24;;;;;;;1.50;1.10;;;23.00;61.70;;;;;;4995831;28;20424;-62
2021/08/04 10:39:51;;;;;;;2.00;1.00;;;23.00;61.50;;;;;;4989960;28;20394;-63
2021/08/04 10:42:16;;;;;;;1.88;1.00;;;23.00;61.50;;;;;;4986127;28;20436;-63
2021/08/04 10:44:44;;;;;;;1.40;1.10;;;23.00;61.50;;;;;;4987200;28;20438;-65
2021/08/04 10:47:29;;;;;;;1.58;0.90;;;23.00;61.50;;;;;;4986361;28;20969;-63
2021/08/04 10:50:15;;;;;;;1.50;0.90;;;22.90;61.50;;;;;;4986882;28;20402;-63
2021/08/04 10:53:07;;;;;;;1.42;0.90;;;23.00;61.60;;;;;;4986777;28;20945;-63
2021/08/04 10:55:56;;;;;;;1.80;1.00;;;22.90;61.50;;;;;;4986586;28;20478;-65
2021/08/04 10:58:22;;;;;;;1.50;0.93;;;22.90;61.50;;;;;;4989895;28;20455;-62
2021/08/04 11:00:48;;;;;;;1.52;0.90;;;22.90;61.50;;;;;;4987144;28;20410;-62
2021/08/04 11:03:53;;;;;;;2.13;1.00;;;22.90;61.50;;;;;;4989192;28;20481;-63
2021/08/04 11:06:19;;;;;;;1.40;0.90;;;22.90;61.50;;;;;;4986777;28;20883;-62
2021/08/04 11:08:47;;;;;;;1.40;1.00;;;22.90;61.60;;;;;;4987383;28;20422;-63
2021/08/04 11:11:52;;;;;;;1.50;0.95;;;22.90;61.50;;;;;;4986740;28;20391;-64
2021/08/04 11:14:37;;;;;;;1.23;0.90;;;22.90;61.60;;;;;;5001160;28;20850;-62
2021/08/04 11:17:06;;;;;;;1.98;1.00;;;22.90;61.50;;;;;;4988802;28;20401;-63
2021/08/04 11:19:53;;;;;;;1.40;1.00;;;22.90;61.50;;;;;;4988208;28;20901;-64
2021/08/04 11:22:22;;;;;;;1.60;1.00;;;22.90;61.60;;;;;;4986641;28;20430;-63
2021/08/04 11:24:56;;;;;;;1.30;1.00;;;22.90;61.60;;;;;;4986101;28;20394;-62
2021/08/04 11:27:25;;;;;;;1.23;0.90;;;22.90;61.60;;;;;;4986144;28;20410;-63
2021/08/04 11:29:53;;;;;;;2.10;0.90;;;22.90;61.60;;;;;;4985841;28;20409;-63
2021/08/04 11:32:23;;;;;;;1.52;1.00;;;22.90;61.60;;;;;;4986272;28;20761;-65
2021/08/04 11:34:50;;;;;;;1.40;0.90;;;22.90;61.60;;;;;;4985558;28;20536;-65
2021/08/04 11:37:17;;;;;;;1.40;1.00;;;22.90;61.60;;;;;;4984598;28;20398;-64
2021/08/04 11:39:56;;;;;;;1.95;1.10;;;22.90;61.60;;;;;;4985607;28;20402;-65
2021/08/04 11:42:23;;;;;;;1.75;0.93;;;22.90;61.60;;;;;;4987251;28;20387;-63
2021/08/04 11:44:49;;;;;;;1.50;0.93;;;22.90;61.60;;;;;;4986141;28;20394;-63
2021/08/04 11:47:15;;;;;;;1.42;0.90;;;22.90;61.60;;;;;;4985422;28;20468;-61
2021/08/04 11:49:45;;;;;;;4.13;1.50;;;22.90;61.70;;;;;;4985827;28;20485;-65
2021/08/04 11:52:19;;;;;;;2.87;1.60;;;22.90;61.80;;;;;;4987218;28;20798;-63
2021/08/04 11:54:46;;;;;;;2.50;1.60;;;22.90;61.70;;;;;;4987977;28;20397;-62
2021/08/04 11:57:24;;;;;;;2.17;1.70;;;22.90;61.60;;;;;;4985421;28;20477;-63
2021/08/04 11:59:52;;;;;;;2.83;1.65;;;22.90;61.50;;;;;;4986963;28;20418;-63
2021/08/04 12:02:21;;;;;;;2.92;1.90;;;22.90;61.40;;;;;;4986847;28;20410;-62
2021/08/04 12:04:55;;;;;;;2.47;1.75;;;22.80;61.30;;;;;;4986430;28;20393;-62
2021/08/04 12:07:26;;;;;;;3.67;1.90;;;22.90;61.40;;;;;;4985552;28;20410;-65
2021/08/04 12:10:06;;;;;;;2.63;1.73;;;22.90;61.40;;;;;;4985949;28;20394;-62
2021/08/04 12:12:35;;;;;;;2.70;1.50;;;22.90;61.40;;;;;;4986931;28;20469;-62
2021/08/04 12:15:04;;;;;;;3.10;1.85;;;22.90;61.40;;;;;;4987514;28;20394;-62
2021/08/04 12:17:32;;;;;;;2.63;1.92;;;22.90;61.40;;;;;;4986228;28;20398;-63
2021/08/04 12:20:19;;;;;;;2.55;2.00;;;22.90;61.40;;;;;;4986169;28;20398;-62
2021/08/04 12:22:56;;;;;;;2.60;1.70;;;22.90;61.30;;;;;;4986908;28;20401;-63
2021/08/04 12:25:22;;;;;;;2.78;1.50;;;22.90;61.20;;;;;;4985693;28;20398;-63
2021/08/04 12:27:53;;;;;;;2.60;1.52;;;22.90;61.10;;;;;;4985127;28;20853;-63
2021/08/04 12:30:26;;;;;;;2.60;1.40;;;22.90;61.10;;;;;;4986750;28;20453;-62
2021/08/04 12:33:06;;;;;;;2.53;1.63;;;22.90;61.10;;;;;;4984969;28;20422;-62
2021/08/04 12:35:45;;;;;;;2.78;1.48;;;22.90;61.10;;;;;;4987129;28;20402;-63
2021/08/04 12:38:14;;;;;;;1.75;1.25;;;22.90;61.20;;;;;;4986953;28;20406;-63
2021/08/04 12:40:43;;;;;;;1.90;1.30;;;22.90;61.20;;;;;;4985028;28;20883;-62
2021/08/04 12:43:10;;;;;;;2.00;1.55;;;22.90;61.20;;;;;;4984904;28;20419;-63
2021/08/04 12:45:44;;;;;;;2.53;1.20;;;22.90;61.30;;;;;;4986372;28;20394;-62
2021/08/04 12:48:10;;;;;;;2.05;1.35;;;22.90;61.20;;;;;;4986476;28;20430;-63
2021/08/04 12:50:56;;;;;;;2.05;1.38;;;22.90;61.20;;;;;;4986331;28;20387;-62
2021/08/04 12:53:34;;;;;;;1.85;1.30;;;22.90;61.30;;;;;;4984041;28;20974;-62
2021/08/04 12:56:27;;;;;;;2.20;1.40;;;22.90;61.30;;;;;;4986326;28;20393;-62
2021/08/04 12:59:19;;;;;;;2.08;1.30;;;22.90;61.30;;;;;;4986429;28;20534;-63